Aeroporto :
LOGIN :

Iscrizione | Disclaimer

   EN    FR    IT 

 










Sommario :    VFR   VFR Marginale   IFR   IFR Intensivo   IFR Molto Intensivo
Visibilità : 
Base nubi : 
>= 8 km
>= 3000ft
5 / 8 km
1000 / 3000 ft
1500m / 5 km
500 / 1000 ft
800 / 1500m
200 / 500 ft
< 800m
< 200 ft
Simboli :   Temporali  Nebbia  Neve Forte  Precipitazioni Forti  Vento > 20 kt
SIGMETs :   Varie  Temporali  Ghiacco  Turbolenza  Onda orograficha  Ceneri Vulcaniche







- Altitudine del aeroporto : 333 ft


LIPL - Ghedi Brescia (Mil)

ULTIMO METAR :
  • 201555Z 13007KT CAVOK 22/07 Q1023 RMK SKC VIS MIN 9999 WIND THR31 14007KT WIND THR13 14007KT BLU

METARs OBSOLETI :
  • 201455Z 16005KT CAVOK 22/08 Q1024 RMK SKC VIS MIN 9999 WIND THR31 15006KT WIND THR13 15007KT BLU
  • 201355Z 13008KT CAVOK 22/08 Q1025 RMK SKC VIS MIN 9999 WIND THR31 13010KT WIND THR13 13007KT BLU

TAF TAF LIPL
Valido dal 20 a 15 ore il 21 a 00 ore UTC


201400Z 2015/2024 08005KT CAVOK
Nessun NOTAM noto per questo aeroporto.
1 SIGMET conosciuto per la FIR Milano (LIMM) :
 
Turbolenza severa
LIMM SIGMET 1 VALID 201330/201730 LIIP
LIMM MILANO FIR SEV TURB OBS E OF LINE N4618 E00855 - N4330 E01045 FL220/350 STNR NC=



MetMap, La meteo Aeronautica in un colpo d'occhio ! - Copyright ORBIFLY Dicembre 2007 - Disclaimer

ORBIFLY MET'MAP TEAM :

Programmazione e sviluppo : Alexandra Zaïnal
Concezione e sviluppo : Baudouin d'Aumeries
Co-Programmazione e sviluppo : Marc-Olivier Méhu
Supporto tecnico e logistico : Manuel Goepfert
Aiuto per la traduzione : Arnaldo La Scala

Contatto : metmap@orbifly.com




FONTI E CREDITI :

   NOAA